createdAt,value
2018-02-05T00:00:37.397Z,101243.20
2018-02-05T00:01:43.103Z,101250.53
2018-02-05T00:02:49.597Z,101244.48
2018-02-05T00:03:55.308Z,101253.09
2018-02-05T00:05:01.016Z,101247.94
2018-02-05T00:06:06.801Z,101250.97
2018-02-05T00:07:12.669Z,101250.52
2018-02-05T00:08:18.047Z,101255.70
2018-02-05T00:09:23.744Z,101255.70
2018-02-05T00:10:29.454Z,101256.14
2018-02-05T00:11:35.189Z,101251.41
2018-02-05T00:12:41.669Z,101255.72
2018-02-05T00:13:47.388Z,101256.56
2018-02-05T00:14:53.135Z,101258.28
2018-02-05T00:15:59.267Z,101254.88
2018-02-05T00:17:05.772Z,101264.78
2018-02-05T00:18:11.495Z,101260.89
2018-02-05T00:19:17.205Z,101262.63
2018-02-05T00:20:23.686Z,101260.92
2018-02-05T00:21:29.398Z,101261.33
2018-02-05T00:22:35.124Z,101259.63
2018-02-05T00:23:40.503Z,101260.07
2018-02-05T00:24:47.786Z,101262.63
2018-02-05T00:25:53.496Z,101264.36
2018-02-05T00:26:59.967Z,101264.37
2018-02-05T00:28:06.465Z,101263.52
2018-02-05T00:29:12.178Z,101267.83
2018-02-05T00:30:17.882Z,101262.67
2018-02-05T00:31:23.592Z,101270.83
2018-02-05T00:32:29.300Z,101270.41
2018-02-05T00:33:35.025Z,101270.86
2018-02-05T00:34:40.736Z,101272.14
2018-02-05T00:35:47.232Z,101271.27
2018-02-05T00:36:53.153Z,101272.56
2018-02-05T00:37:59.640Z,101270.83
2018-02-05T00:39:04.287Z,101273.84
2018-02-05T00:40:09.999Z,101277.30
2018-02-05T00:41:15.703Z,101276.00
2018-02-05T00:42:21.404Z,101283.77
2018-02-05T00:43:26.919Z,101283.34
2018-02-05T00:44:31.812Z,101287.22
2018-02-05T00:45:38.296Z,101285.47
2018-02-05T00:46:43.996Z,101285.48
2018-02-05T00:47:50.868Z,101285.91
2018-02-05T00:48:57.349Z,101291.08
2018-02-05T00:50:03.859Z,101283.34
2018-02-05T00:52:12.291Z,101291.50
2018-02-05T00:53:17.989Z,101290.66
2018-02-05T00:54:23.776Z,101290.25
2018-02-05T00:55:29.507Z,101292.83
2018-02-05T00:56:34.605Z,101295.86
2018-02-05T00:57:40.310Z,101292.41
2018-02-05T00:58:46.063Z,101289.83
2018-02-05T00:59:52.758Z,101306.62
2018-02-05T01:00:58.476Z,101296.29
2018-02-05T01:02:04.176Z,101301.91
2018-02-05T01:03:10.664Z,101298.86
2018-02-05T01:04:17.140Z,101298.88
2018-02-05T01:05:22.207Z,101301.03
2018-02-05T01:06:27.940Z,101307.49
2018-02-05T01:07:33.640Z,101305.34
2018-02-05T01:08:39.339Z,101302.33
2018-02-05T01:09:45.209Z,101307.94
2018-02-05T01:10:50.939Z,101310.95
2018-02-05T01:11:57.439Z,101309.64
2018-02-05T01:13:03.149Z,101311.80
2018-02-05T01:14:08.875Z,101308.78
2018-02-05T01:15:15.340Z,101315.25
2018-02-05T01:16:21.044Z,101316.13
2018-02-05T01:17:26.784Z,101320.42
2018-02-05T01:18:32.496Z,101317.84
2018-02-05T01:19:38.207Z,101315.68
2018-02-05T01:20:43.924Z,101312.66
2018-02-05T01:21:50.405Z,101312.22
2018-02-05T01:22:56.155Z,101313.53
2018-02-05T01:24:01.890Z,101317.84
2018-02-05T01:25:07.597Z,101315.25
2018-02-05T01:26:13.299Z,101307.50
2018-02-05T01:27:19.007Z,101302.33
2018-02-05T01:28:24.760Z,101313.97
2018-02-05T01:29:30.471Z,101308.36
2018-02-05T01:30:36.940Z,101301.47
2018-02-05T01:31:42.656Z,101306.20
2018-02-05T01:32:48.358Z,101300.16
2018-02-05T01:33:54.084Z,101303.18
2018-02-05T01:34:59.793Z,101304.04
2018-02-05T01:36:05.496Z,101303.61
2018-02-05T01:37:11.196Z,101303.61
2018-02-05T01:38:16.928Z,101302.32
2018-02-05T01:39:22.655Z,101306.20
2018-02-05T01:40:28.363Z,101307.05
2018-02-05T01:41:34.133Z,101310.93
2018-02-05T01:42:40.749Z,101304.47
2018-02-05T01:43:46.464Z,101305.75
2018-02-05T01:44:52.222Z,101307.92
2018-02-05T01:45:57.946Z,101305.33
2018-02-05T01:47:03.679Z,101310.50
2018-02-05T01:48:10.156Z,101307.92
2018-02-05T01:49:15.857Z,101308.35
2018-02-05T01:50:21.583Z,101307.49
2018-02-05T01:51:28.804Z,101307.06
2018-02-05T01:52:34.511Z,101304.03
2018-02-05T01:53:40.980Z,101310.50
2018-02-05T01:54:47.452Z,101305.77
2018-02-05T01:55:53.191Z,101306.19
2018-02-05T01:56:58.899Z,101307.05
2018-02-05T01:58:04.609Z,101305.33
2018-02-05T01:59:10.315Z,101307.47
2018-02-05T02:00:16.055Z,101306.17
2018-02-05T02:01:22.540Z,101310.50
2018-02-05T02:02:28.251Z,101307.05
2018-02-05T02:03:33.971Z,101301.45
2018-02-05T02:04:40.435Z,101308.77
2018-02-05T02:05:46.007Z,101310.06
2018-02-05T02:06:51.740Z,101309.22
2018-02-05T02:07:57.451Z,101309.21
2018-02-05T02:09:03.497Z,101312.23
2018-02-05T02:10:09.962Z,101311.34
2018-02-05T02:11:16.441Z,101306.62
2018-02-05T02:12:22.183Z,101304.47
2018-02-05T02:13:27.932Z,101311.37
2018-02-05T02:14:33.641Z,101305.76
2018-02-05T02:15:40.120Z,101307.06
2018-02-05T02:16:45.820Z,101307.94
2018-02-05T02:17:51.552Z,101307.92
2018-02-05T02:18:57.273Z,101312.66
2018-02-05T02:20:02.990Z,101309.22
2018-02-05T02:21:08.693Z,101311.36
2018-02-05T02:22:15.181Z,101313.53
2018-02-05T02:23:20.580Z,101310.52
2018-02-05T02:24:27.051Z,101309.67
2018-02-05T02:25:33.536Z,101307.50
2018-02-05T02:26:39.086Z,101305.79
2018-02-05T02:27:44.786Z,101309.23
2018-02-05T02:28:51.286Z,101309.69
2018-02-05T02:29:57.019Z,101309.22
2018-02-05T02:31:02.732Z,101313.56
2018-02-05T02:32:09.199Z,101309.24
2018-02-05T02:33:14.917Z,101313.97
2018-02-05T02:34:21.420Z,101307.10
2018-02-05T02:35:26.467Z,101318.28
2018-02-05T02:36:32.188Z,101313.56
2018-02-05T02:37:38.241Z,101310.98
2018-02-05T02:38:43.943Z,101314.84
2018-02-05T02:39:49.679Z,101312.70
2018-02-05T02:40:56.172Z,101315.27
2018-02-05T02:42:01.885Z,101316.13
2018-02-05T02:43:08.348Z,101319.16
2018-02-05T02:44:14.060Z,101319.59
2018-02-05T02:45:19.803Z,101315.30
2018-02-05T02:46:25.512Z,101322.16
2018-02-05T02:47:31.047Z,101319.59
2018-02-05T02:48:36.779Z,101317.00
2018-02-05T02:49:42.488Z,101323.89
2018-02-05T02:50:48.227Z,101318.73
2018-02-05T02:51:53.941Z,101321.32
2018-02-05T02:52:59.648Z,101323.02
2018-02-05T02:54:05.414Z,101319.58
2018-02-05T02:55:11.128Z,101322.17
2018-02-05T02:56:16.864Z,101323.88
2018-02-05T02:57:22.567Z,101325.17
2018-02-05T02:58:28.274Z,101325.61
2018-02-05T02:59:33.985Z,101326.92
2018-02-05T03:00:39.770Z,101331.66
2018-02-05T03:01:46.283Z,101326.04
2018-02-05T03:02:52.004Z,101324.32
2018-02-05T03:03:57.740Z,101333.82
2018-02-05T03:05:03.440Z,101332.08
2018-02-05T03:06:09.153Z,101330.37
2018-02-05T03:07:14.896Z,101333.37
2018-02-05T03:08:20.607Z,101332.52
2018-02-05T03:09:26.316Z,101335.52
2018-02-05T03:10:32.805Z,101334.24
2018-02-05T03:11:38.517Z,101329.50
2018-02-05T03:12:45.017Z,101332.09
2018-02-05T03:13:50.732Z,101332.95
2018-02-05T03:14:56.482Z,101330.36
2018-02-05T03:16:02.175Z,101333.39
2018-02-05T03:17:07.891Z,101334.25
2018-02-05T03:18:13.620Z,101337.69
2018-02-05T03:19:19.347Z,101338.98
2018-02-05T03:20:25.056Z,101335.08
2018-02-05T03:21:30.849Z,101337.25
2018-02-05T03:22:36.540Z,101331.64
2018-02-05T03:23:43.041Z,101341.55
2018-02-05T03:24:48.755Z,101342.84
2018-02-05T03:25:54.459Z,101337.69
2018-02-05T03:27:00.251Z,101333.38
2018-02-05T03:28:05.948Z,101335.95
2018-02-05T03:29:11.676Z,101340.28
2018-02-05T03:30:17.387Z,101339.42
2018-02-05T03:31:23.088Z,101338.55
2018-02-05T03:32:29.555Z,101335.98
2018-02-05T03:33:36.027Z,101330.80
2018-02-05T03:34:41.768Z,101337.27
2018-02-05T03:35:46.577Z,101335.97
2018-02-05T03:36:53.052Z,101342.86
2018-02-05T03:37:58.792Z,101348.91
2018-02-05T03:39:03.933Z,101348.91
2018-02-05T03:40:09.006Z,101357.94
2018-02-05T03:41:14.709Z,101352.77
2018-02-05T03:42:20.416Z,101359.67
2018-02-05T03:43:26.132Z,101355.80
2018-02-05T03:44:31.824Z,101362.25
2018-02-05T03:45:37.573Z,101358.39
2018-02-05T03:46:43.317Z,101356.64
2018-02-05T03:47:49.031Z,101354.94
2018-02-05T03:48:54.741Z,101357.52
2018-02-05T03:50:01.233Z,101362.23
2018-02-05T03:51:06.979Z,101361.38
2018-02-05T03:52:12.674Z,101356.64
2018-02-05T03:53:19.159Z,101360.53
2018-02-05T03:54:24.859Z,101360.09
2018-02-05T03:55:30.579Z,101360.50
2018-02-05T03:56:36.299Z,101363.97
2018-02-05T03:57:41.999Z,101364.40
2018-02-05T03:58:48.476Z,101362.67
2018-02-05T03:59:54.197Z,101360.95
2018-02-05T04:00:59.895Z,101366.55
2018-02-05T04:02:05.301Z,101365.71
2018-02-05T04:03:11.008Z,101360.95
2018-02-05T04:04:17.481Z,101366.55
2018-02-05T04:05:23.196Z,101367.84
2018-02-05T04:06:28.732Z,101368.28
2018-02-05T04:07:34.463Z,101370.89
2018-02-05T04:08:40.436Z,101370.88
2018-02-05T04:09:46.908Z,101371.73
2018-02-05T04:10:52.294Z,101371.75
2018-02-05T04:11:58.063Z,101378.23
2018-02-05T04:13:03.790Z,101384.67
2018-02-05T04:14:09.573Z,101386.41
2018-02-05T04:15:16.031Z,101382.52
2018-02-05T04:16:21.746Z,101387.70
2018-02-05T04:17:28.235Z,101379.94
2018-02-05T04:18:33.976Z,101385.10
2018-02-05T04:19:39.684Z,101390.30
2018-02-05T04:20:46.187Z,101386.83
2018-02-05T04:21:51.884Z,101387.27
2018-02-05T04:22:58.376Z,101389.42
2018-02-05T04:24:04.112Z,101389.42
2018-02-05T04:25:09.818Z,101388.54
2018-02-05T04:26:16.370Z,101390.30
2018-02-05T04:27:22.259Z,101388.97
2018-02-05T04:28:27.973Z,101391.99
2018-02-05T04:29:34.474Z,101391.58
2018-02-05T04:30:40.187Z,101390.73
2018-02-05T04:31:45.894Z,101392.86
2018-02-05T04:32:51.600Z,101395.89
2018-02-05T04:33:57.316Z,101391.99
2018-02-05T04:35:03.047Z,101392.89
2018-02-05T04:36:08.755Z,101397.19
2018-02-05T04:37:14.463Z,101395.87
2018-02-05T04:38:20.178Z,101400.61
2018-02-05T04:39:25.887Z,101404.92
2018-02-05T04:40:32.399Z,101405.80
2018-02-05T04:41:38.425Z,101398.04
2018-02-05T04:42:44.171Z,101405.80
2018-02-05T04:43:49.876Z,101411.84
2018-02-05T04:44:56.347Z,101405.80
2018-02-05T04:46:02.096Z,101410.98
2018-02-05T04:47:07.817Z,101413.97
2018-02-05T04:48:13.527Z,101415.27
2018-02-05T04:49:19.227Z,101417.44
2018-02-05T04:50:24.288Z,101410.94
2018-02-05T04:51:30.034Z,101417.84
2018-02-05T04:52:35.739Z,101416.10
2018-02-05T04:53:41.576Z,101408.34
2018-02-05T04:54:47.503Z,101410.48
2018-02-05T04:55:53.976Z,101412.20
2018-02-05T04:56:59.720Z,101416.52
2018-02-05T04:58:05.463Z,101409.62
2018-02-05T04:59:11.206Z,101409.16
2018-02-05T05:00:16.923Z,101406.13
2018-02-05T05:01:23.554Z,101409.56
2018-02-05T05:02:29.450Z,101413.41
2018-02-05T05:03:35.168Z,101417.31
2018-02-05T05:04:40.888Z,101420.34
2018-02-05T05:05:46.615Z,101412.14
2018-02-05T05:06:52.327Z,101414.33
2018-02-05T05:07:58.059Z,101415.61
2018-02-05T05:09:03.591Z,101418.63
2018-02-05T05:10:09.308Z,101419.08
2018-02-05T05:11:15.791Z,101420.80
2018-02-05T05:12:21.504Z,101421.64
2018-02-05T05:13:28.041Z,101425.95
2018-02-05T05:14:33.744Z,101423.37
2018-02-05T05:15:39.470Z,101420.80
2018-02-05T05:16:45.169Z,101424.70
2018-02-05T05:17:50.942Z,101421.67
2018-02-05T05:18:57.462Z,101423.84
2018-02-05T05:20:03.165Z,101427.28
2018-02-05T05:21:08.891Z,101434.61
2018-02-05T05:22:14.606Z,101426.86
2018-02-05T05:23:21.288Z,101432.02
2018-02-05T05:24:27.035Z,101435.45
2018-02-05T05:25:33.503Z,101437.19
2018-02-05T05:26:39.239Z,101438.91
2018-02-05T05:27:44.934Z,101438.07
2018-02-05T05:28:50.640Z,101443.25
2018-02-05T05:29:56.398Z,101439.34
2018-02-05T05:31:02.096Z,101438.49
2018-02-05T05:32:07.634Z,101449.70
2018-02-05T05:33:13.355Z,101450.53
2018-02-05T05:34:19.836Z,101448.39
2018-02-05T05:35:25.576Z,101441.47
2018-02-05T05:36:31.284Z,101437.59
2018-02-05T05:37:37.765Z,101443.60
2018-02-05T05:38:43.470Z,101442.75
2018-02-05T05:39:49.180Z,101445.34
2018-02-05T05:40:54.919Z,101443.64
2018-02-05T05:42:00.623Z,101446.66
2018-02-05T05:43:06.344Z,101448.38
2018-02-05T05:44:12.062Z,101454.84
2018-02-05T05:45:17.781Z,101451.41
2018-02-05T05:46:23.499Z,101449.25
2018-02-05T05:47:29.212Z,101448.38
2018-02-05T05:48:35.690Z,101450.98
2018-02-05T05:49:42.165Z,101450.56
2018-02-05T05:50:47.868Z,101452.69
2018-02-05T05:51:54.376Z,101446.23
2018-02-05T05:53:00.100Z,101457.43
2018-02-05T05:54:05.795Z,101460.86
2018-02-05T05:55:11.516Z,101454.41
2018-02-05T05:56:17.228Z,101458.28
2018-02-05T05:57:22.988Z,101455.69
2018-02-05T05:58:28.699Z,101454.37
2018-02-05T05:59:34.403Z,101456.95
2018-02-05T06:00:40.887Z,101459.12
2018-02-05T06:01:46.596Z,101455.22
2018-02-05T06:02:52.345Z,101453.09
2018-02-05T06:03:58.058Z,101453.09
2018-02-05T06:05:03.763Z,101451.78
2018-02-05T06:06:09.488Z,101450.91
2018-02-05T06:07:15.967Z,101447.02
2018-02-05T06:08:21.465Z,101452.20
2018-02-05T06:09:27.952Z,101451.34
2018-02-05T06:10:33.660Z,101451.75
2018-02-05T06:11:40.152Z,101453.94
2018-02-05T06:12:45.863Z,101459.51
2018-02-05T06:13:52.363Z,101459.97
2018-02-05T06:14:58.081Z,101454.80
2018-02-05T06:16:04.546Z,101461.25
2018-02-05T06:17:10.256Z,101457.83
2018-02-05T06:18:16.727Z,101459.97
2018-02-05T06:19:23.239Z,101462.56
2018-02-05T06:20:28.947Z,101462.58
2018-02-05T06:21:34.654Z,101459.58
2018-02-05T06:22:41.131Z,101458.73
2018-02-05T06:23:47.600Z,101458.28
2018-02-05T06:24:54.166Z,101463.48
2018-02-05T06:25:59.877Z,101458.32
2018-02-05T06:27:05.587Z,101462.59
2018-02-05T06:28:11.294Z,101467.80
2018-02-05T06:29:17.108Z,101471.69
2018-02-05T06:30:23.621Z,101472.14
2018-02-05T06:31:29.334Z,101478.16
2018-02-05T06:32:35.058Z,101476.00
2018-02-05T06:33:40.783Z,101479.04
2018-02-05T06:34:47.265Z,101487.22
2018-02-05T06:35:53.024Z,101485.08
2018-02-05T06:36:58.735Z,101484.63
2018-02-05T06:38:04.471Z,101487.64
2018-02-05T06:39:10.938Z,101484.61
2018-02-05T06:40:16.648Z,101486.35
2018-02-05T06:41:23.904Z,101487.67
2018-02-05T06:42:29.640Z,101492.84
2018-02-05T06:43:35.421Z,101498.02
2018-02-05T06:44:41.913Z,101499.77
2018-02-05T06:45:47.627Z,101500.19
2018-02-05T06:46:54.136Z,101498.92
2018-02-05T06:47:59.846Z,101496.75
2018-02-05T06:49:05.548Z,101492.88
2018-02-05T06:50:11.127Z,101497.63
2018-02-05T06:51:33.847Z,101495.03
2018-02-05T06:54:40.214Z,101503.63
2018-02-05T06:55:49.577Z,101506.65
2018-02-05T06:56:55.282Z,101504.50
2018-02-05T06:58:01.960Z,101508.39
2018-02-05T06:59:07.688Z,101508.37
2018-02-05T07:00:13.423Z,101509.25
2018-02-05T07:01:19.896Z,101507.08
2018-02-05T07:02:25.620Z,101514.84
2018-02-05T07:03:32.104Z,101510.09
2018-02-05T07:04:37.839Z,101512.69
2018-02-05T07:05:43.358Z,101512.27
2018-02-05T07:06:49.841Z,101507.95
2018-02-05T07:07:55.562Z,101514.40
2018-02-05T07:09:02.023Z,101509.23
2018-02-05T07:10:07.768Z,101514.41
2018-02-05T07:11:13.480Z,101516.98
2018-02-05T07:12:19.969Z,101514.84
2018-02-05T07:13:25.789Z,101520.88
2018-02-05T07:14:31.493Z,101521.73
2018-02-05T07:15:37.227Z,101517.87
2018-02-05T07:16:42.948Z,101522.16
2018-02-05T07:17:48.655Z,101523.02
2018-02-05T07:18:54.600Z,101521.73
2018-02-05T07:20:01.329Z,101526.50
2018-02-05T07:21:07.070Z,101526.48
2018-02-05T07:22:12.796Z,101520.45
2018-02-05T07:23:18.543Z,101525.64
2018-02-05T07:24:24.259Z,101524.32
2018-02-05T07:25:29.972Z,101527.37
2018-02-05T07:26:36.475Z,101526.05
2018-02-05T07:27:42.202Z,101525.18
2018-02-05T07:28:47.905Z,101522.16
2018-02-05T07:29:53.616Z,101529.48
2018-02-05T07:30:59.316Z,101531.21
2018-02-05T07:32:05.048Z,101525.19
2018-02-05T07:33:10.751Z,101531.22
2018-02-05T07:34:16.480Z,101523.45
2018-02-05T07:35:22.179Z,101520.86
2018-02-05T07:36:27.895Z,101523.47
2018-02-05T07:37:34.395Z,101523.91
2018-02-05T07:38:40.124Z,101525.20
2018-02-05T07:39:45.828Z,101524.77
2018-02-05T07:40:52.318Z,101521.32
2018-02-05T07:41:58.020Z,101525.20
2018-02-05T07:43:03.757Z,101522.16
2018-02-05T07:44:09.470Z,101520.03
2018-02-05T07:45:15.257Z,101522.19
2018-02-05T07:46:21.765Z,101524.33
2018-02-05T07:47:27.476Z,101523.91
2018-02-05T07:48:33.226Z,101527.81
2018-02-05T07:49:39.005Z,101530.37
2018-02-05T07:50:44.734Z,101526.48
2018-02-05T07:51:50.458Z,101526.05
2018-02-05T07:52:56.165Z,101529.48
2018-02-05T07:54:02.677Z,101526.03
2018-02-05T07:55:08.451Z,101528.59
2018-02-05T07:56:14.159Z,101530.76
2018-02-05T07:57:19.870Z,101529.44
2018-02-05T07:58:25.585Z,101526.03
2018-02-05T07:59:32.164Z,101529.48
2018-02-05T08:00:38.637Z,101532.06
2018-02-05T08:01:44.139Z,101530.81
2018-02-05T08:02:50.647Z,101528.67
2018-02-05T08:03:56.218Z,101527.39
2018-02-05T08:05:01.940Z,101534.28
2018-02-05T08:06:07.650Z,101536.44
2018-02-05T08:07:13.356Z,101533.02
2018-02-05T08:08:19.868Z,101532.57
2018-02-05T08:09:25.581Z,101534.28
2018-02-05T08:10:31.316Z,101530.84
2018-02-05T08:11:37.037Z,101528.63
2018-02-05T08:12:43.536Z,101532.54
2018-02-05T08:13:49.236Z,101535.98
2018-02-05T08:14:55.741Z,101531.70
2018-02-05T08:16:01.473Z,101533.43
2018-02-05T08:17:07.174Z,101536.88
2018-02-05T08:18:13.654Z,101530.39
2018-02-05T08:19:19.356Z,101531.27
2018-02-05T08:20:25.104Z,101538.61
2018-02-05T08:21:30.836Z,101538.59
2018-02-05T08:22:36.781Z,101538.58
2018-02-05T08:23:42.498Z,101541.62
2018-02-05T08:24:48.205Z,101539.48
2018-02-05T08:25:53.943Z,101536.02
2018-02-05T08:26:59.694Z,101540.77
2018-02-05T08:28:05.414Z,101531.70
2018-02-05T08:29:11.120Z,101538.98
2018-02-05T08:30:18.344Z,101544.59
2018-02-05T08:31:24.043Z,101541.58
2018-02-05T08:32:29.785Z,101545.02
2018-02-05T08:33:35.567Z,101539.43
2018-02-05T08:34:42.340Z,101546.33
2018-02-05T08:35:48.052Z,101542.02
2018-02-05T08:36:54.519Z,101541.58
2018-02-05T08:38:00.252Z,101545.03
2018-02-05T08:39:05.826Z,101550.64
2018-02-05T08:40:11.549Z,101551.95
2018-02-05T08:41:17.260Z,101551.56
2018-02-05T08:42:23.748Z,101552.85
2018-02-05T08:43:29.487Z,101558.46
2018-02-05T08:44:35.193Z,101555.86
2018-02-05T08:45:40.584Z,101553.71
2018-02-05T08:46:46.300Z,101555.00
2018-02-05T08:47:52.004Z,101551.55
2018-02-05T08:48:57.744Z,101559.31
2018-02-05T08:50:03.468Z,101560.61
2018-02-05T08:51:09.191Z,101558.45
2018-02-05T08:52:14.905Z,101562.36
2018-02-05T08:53:20.624Z,101552.84
2018-02-05T08:54:27.127Z,101560.17
2018-02-05T08:55:32.871Z,101554.57
2018-02-05T08:56:38.576Z,101557.63
2018-02-05T08:57:45.081Z,101559.36
2018-02-05T08:58:50.794Z,101564.95
2018-02-05T08:59:56.533Z,101560.64
2018-02-05T09:01:02.314Z,101561.95
2018-02-05T09:02:08.017Z,101558.91
2018-02-05T09:03:13.725Z,101558.92
2018-02-05T09:04:20.222Z,101561.50
2018-02-05T09:05:25.958Z,101559.73
2018-02-05T09:06:31.655Z,101564.94
2018-02-05T09:07:38.802Z,101558.45
2018-02-05T09:08:44.522Z,101558.48
2018-02-05T09:09:50.234Z,101561.06
2018-02-05T09:10:56.725Z,101565.80
2018-02-05T09:12:02.445Z,101571.43
2018-02-05T09:13:08.164Z,101568.86
2018-02-05T09:14:14.666Z,101573.55
2018-02-05T09:15:20.563Z,101568.34
2018-02-05T09:16:27.080Z,101571.38
2018-02-05T09:17:32.792Z,101567.49
2018-02-05T09:18:38.529Z,101575.27
2018-02-05T09:19:44.240Z,101572.23
2018-02-05T09:20:50.721Z,101571.42
2018-02-05T09:21:56.471Z,101577.05
2018-02-05T09:23:02.366Z,101575.73
2018-02-05T09:24:09.582Z,101569.70
2018-02-05T09:25:15.280Z,101573.18
2018-02-05T09:26:20.993Z,101573.59
2018-02-05T09:27:26.736Z,101574.86
2018-02-05T09:28:32.449Z,101574.89
2018-02-05T09:29:38.187Z,101576.63
2018-02-05T09:30:43.900Z,101572.30
2018-02-05T09:31:50.397Z,101573.19
2018-02-05T09:32:56.124Z,101580.95
2018-02-05T09:34:01.875Z,101576.23
2018-02-05T09:35:07.580Z,101577.08
2018-02-05T09:36:13.283Z,101577.49
2018-02-05T09:37:18.998Z,101576.22
2018-02-05T09:38:24.732Z,101575.76
2018-02-05T09:39:30.444Z,101574.03
2018-02-05T09:40:36.920Z,101578.34
2018-02-05T09:41:42.632Z,101577.89
2018-02-05T09:42:49.108Z,101577.91
2018-02-05T09:43:55.620Z,101568.84
2018-02-05T09:45:01.368Z,101570.14
2018-02-05T09:46:07.073Z,101575.73
2018-02-05T09:47:12.780Z,101576.20
2018-02-05T09:48:19.260Z,101574.07
2018-02-05T09:49:24.996Z,101576.22
2018-02-05T09:50:31.479Z,101573.63
2018-02-05T09:51:37.197Z,101573.21
2018-02-05T09:52:42.716Z,101571.94
2018-02-05T09:53:49.192Z,101578.84
2018-02-05T09:54:54.940Z,101578.41
2018-02-05T09:56:00.660Z,101575.83
2018-02-05T09:57:07.141Z,101580.55
2018-02-05T09:58:12.656Z,101578.38
2018-02-05T09:59:19.146Z,101577.52
2018-02-05T10:00:24.883Z,101576.25
2018-02-05T10:01:30.608Z,101576.24
2018-02-05T10:02:36.352Z,101576.26
2018-02-05T10:03:42.061Z,101577.98
2018-02-05T10:04:47.782Z,101579.28
2018-02-05T10:05:53.520Z,101572.81
2018-02-05T10:06:59.058Z,101576.67
2018-02-05T10:08:04.763Z,101571.50
2018-02-05T10:09:10.479Z,101574.94
2018-02-05T10:10:16.974Z,101573.64
2018-02-05T10:11:22.721Z,101572.80
2018-02-05T10:12:28.452Z,101571.92
2018-02-05T10:13:34.152Z,101571.05
2018-02-05T10:14:40.640Z,101574.94
2018-02-05T10:15:46.363Z,101580.97
2018-02-05T10:16:52.871Z,101574.91
2018-02-05T10:17:58.597Z,101564.55
2018-02-05T10:19:04.113Z,101571.02
2018-02-05T10:20:09.829Z,101568.40
2018-02-05T10:21:16.308Z,101567.12
2018-02-05T10:22:22.062Z,101570.16
2018-02-05T10:23:27.782Z,101570.59
2018-02-05T10:24:34.251Z,101568.00
2018-02-05T10:25:39.960Z,101569.72
2018-02-05T10:26:45.668Z,101566.68
2018-02-05T10:27:51.428Z,101566.21
2018-02-05T10:28:57.127Z,101567.52
2018-02-05T10:30:03.169Z,101566.22
2018-02-05T10:31:08.878Z,101567.94
2018-02-05T10:32:15.360Z,101561.84
2018-02-05T10:33:21.101Z,101562.67
2018-02-05T10:34:26.622Z,101555.70
2018-02-05T10:35:32.907Z,101566.55
2018-02-05T10:36:38.439Z,101561.83
2018-02-05T10:37:43.951Z,101563.13
2018-02-05T10:38:50.452Z,101569.63
2018-02-05T10:39:56.168Z,101566.59
2018-02-05T10:41:01.889Z,101573.56
2018-02-05T10:42:08.392Z,101562.28
2018-02-05T10:43:13.929Z,101565.29
2018-02-05T10:44:19.466Z,101568.74
2018-02-05T10:45:25.244Z,101568.78
2018-02-05T10:46:30.940Z,101566.64
2018-02-05T10:47:36.934Z,101566.23
2018-02-05T10:48:42.643Z,101570.13
2018-02-05T10:49:48.448Z,101567.99
2018-02-05T10:50:54.139Z,101568.87
2018-02-05T10:51:59.856Z,101571.01
2018-02-05T10:53:05.573Z,101574.03
2018-02-05T10:54:11.279Z,101571.45
2018-02-05T10:55:17.790Z,101571.45
2018-02-05T10:56:23.556Z,101576.22
2018-02-05T10:57:29.260Z,101578.38
2018-02-05T10:58:34.983Z,101575.80
2018-02-05T10:59:40.907Z,101569.33
2018-02-05T11:00:47.873Z,101570.62
2018-02-05T11:01:53.577Z,101570.61
2018-02-05T11:02:59.284Z,101566.77
2018-02-05T11:04:05.025Z,101570.19
2018-02-05T11:05:11.491Z,101562.84
2018-02-05T11:06:17.233Z,101567.19
2018-02-05T11:07:22.976Z,101565.45
2018-02-05T11:08:28.688Z,101560.30
2018-02-05T11:09:35.167Z,101560.30
2018-02-05T11:10:40.882Z,101557.25
2018-02-05T11:11:47.388Z,101561.14
2018-02-05T11:12:53.095Z,101556.80
2018-02-05T11:13:59.580Z,101549.50
2018-02-05T11:15:05.294Z,101552.52
2018-02-05T11:16:11.990Z,101552.08
2018-02-05T11:17:17.717Z,101553.36
2018-02-05T11:18:23.104Z,101548.20
2018-02-05T11:19:28.824Z,101550.34
2018-02-05T11:20:34.540Z,101550.78
2018-02-05T11:21:40.269Z,101541.71
2018-02-05T11:22:46.008Z,101544.71
2018-02-05T11:23:51.737Z,101544.30
2018-02-05T11:24:58.208Z,101543.44
2018-02-05T11:26:03.924Z,101542.56
2018-02-05T11:27:09.640Z,101544.71
2018-02-05T11:28:16.135Z,101540.84
2018-02-05T11:29:21.881Z,101540.39
2018-02-05T11:30:28.530Z,101542.58
2018-02-05T11:31:35.086Z,101537.81
2018-02-05T11:32:40.998Z,101535.23
2018-02-05T11:33:46.744Z,101538.70
2018-02-05T11:34:52.452Z,101535.25
2018-02-05T11:35:58.161Z,101532.22
2018-02-05T11:37:04.648Z,101530.48
2018-02-05T11:38:10.392Z,101530.50
2018-02-05T11:39:16.612Z,101532.66
2018-02-05T11:40:23.092Z,101533.52
2018-02-05T11:41:28.803Z,101528.77
2018-02-05T11:42:35.292Z,101530.07
2018-02-05T11:43:41.058Z,101530.08
2018-02-05T11:44:46.956Z,101530.94
2018-02-05T11:45:52.920Z,101521.86
2018-02-05T11:46:58.625Z,101517.09
2018-02-05T11:48:04.359Z,101524.01
2018-02-05T11:49:11.237Z,101526.62
2018-02-05T11:50:17.741Z,101524.02
2018-02-05T11:51:23.464Z,101517.98
2018-02-05T11:52:29.177Z,101520.55
2018-02-05T11:53:34.895Z,101519.70
2018-02-05T11:54:40.607Z,101514.53
2018-02-05T11:55:46.350Z,101513.67
2018-02-05T11:56:52.089Z,101514.53
2018-02-05T11:57:57.790Z,101507.20
2018-02-05T11:59:04.280Z,101501.59
2018-02-05T12:00:10.209Z,101508.50
2018-02-05T12:01:15.956Z,101503.75
2018-02-05T12:02:21.672Z,101508.91
2018-02-05T12:03:28.147Z,101509.78
2018-02-05T12:04:33.857Z,101509.34
2018-02-05T12:05:39.580Z,101504.17
2018-02-05T12:06:45.314Z,101496.41
2018-02-05T12:07:51.020Z,101503.31
2018-02-05T12:08:56.731Z,101506.75
2018-02-05T12:10:03.200Z,101503.31
2018-02-05T12:11:09.709Z,101507.64
2018-02-05T12:12:15.449Z,101505.45
2018-02-05T12:13:21.157Z,101502.00
2018-02-05T12:14:26.888Z,101502.44
2018-02-05T12:15:32.808Z,101494.66
2018-02-05T12:16:39.344Z,101494.23
2018-02-05T12:17:45.088Z,101491.63
2018-02-05T12:18:50.815Z,101494.67
2018-02-05T12:19:58.063Z,101488.61
2018-02-05T12:21:03.785Z,101489.02
2018-02-05T12:22:11.013Z,101485.56
2018-02-05T12:23:16.748Z,101489.89
2018-02-05T12:24:22.465Z,101484.26
2018-02-05T12:25:28.181Z,101482.13
2018-02-05T12:26:34.662Z,101480.42
2018-02-05T12:27:40.371Z,101474.80
2018-02-05T12:28:46.104Z,101481.27
2018-02-05T12:29:51.813Z,101474.79
2018-02-05T12:30:57.524Z,101478.69
2018-02-05T12:32:03.272Z,101477.37
2018-02-05T12:33:08.976Z,101475.66
2018-02-05T12:34:15.480Z,101477.34
2018-02-05T12:35:21.526Z,101478.21